sensor_id;sensor_type;location;lat;lon;timestamp;pressure;altitude;pressure_sealevel;temperature;humidity
58761;BME280;44529;47.464;19.014;2022-08-19T00:01:36;99657.91;;;25.73;52.96
58761;BME280;44529;47.464;19.014;2022-08-19T00:04:39;99655.16;;;25.69;53.06
58761;BME280;44529;47.464;19.014;2022-08-19T00:07:42;99661.44;;;25.73;53.74
58761;BME280;44529;47.464;19.014;2022-08-19T00:10:45;99662.34;;;25.66;53.53
58761;BME280;44529;47.464;19.014;2022-08-19T00:13:48;99657.69;;;25.63;54.40
58761;BME280;44529;47.464;19.014;2022-08-19T00:16:52;99658.53;;;25.60;54.54
58761;BME280;44529;47.464;19.014;2022-08-19T00:19:56;99656.03;;;25.66;53.47
58761;BME280;44529;47.464;19.014;2022-08-19T00:22:58;99659.06;;;25.72;53.54
58761;BME280;44529;47.464;19.014;2022-08-19T00:26:01;99656.75;;;25.70;53.78
58761;BME280;44529;47.464;19.014;2022-08-19T00:29:04;99660.84;;;25.62;54.44
58761;BME280;44529;47.464;19.014;2022-08-19T00:32:07;99657.25;;;25.65;54.49
58761;BME280;44529;47.464;19.014;2022-08-19T00:35:12;99667.09;;;25.66;53.88
58761;BME280;44529;47.464;19.014;2022-08-19T00:38:14;99656.97;;;25.59;54.04
58761;BME280;44529;47.464;19.014;2022-08-19T00:41:19;99670.81;;;25.59;53.62
58761;BME280;44529;47.464;19.014;2022-08-19T00:44:26;99667.25;;;25.59;54.32
58761;BME280;44529;47.464;19.014;2022-08-19T00:47:29;99662.84;;;25.61;53.81
58761;BME280;44529;47.464;19.014;2022-08-19T00:50:33;99654.69;;;25.54;54.29
58761;BME280;44529;47.464;19.014;2022-08-19T00:53:36;99656.69;;;25.54;54.90
58761;BME280;44529;47.464;19.014;2022-08-19T00:56:38;99650.19;;;25.44;54.44
58761;BME280;44529;47.464;19.014;2022-08-19T00:59:44;99646.97;;;25.46;54.54
58761;BME280;44529;47.464;19.014;2022-08-19T01:03:09;99643.84;;;25.44;54.05
58761;BME280;44529;47.464;19.014;2022-08-19T01:06:11;99653.78;;;25.41;53.83
58761;BME280;44529;47.464;19.014;2022-08-19T01:09:13;99636.88;;;25.35;55.66
58761;BME280;44529;47.464;19.014;2022-08-19T01:12:16;99645.47;;;25.41;54.01
58761;BME280;44529;47.464;19.014;2022-08-19T01:15:22;99644.34;;;25.58;52.51
58761;BME280;44529;47.464;19.014;2022-08-19T01:18:27;99648.94;;;25.65;53.41
58761;BME280;44529;47.464;19.014;2022-08-19T01:21:34;99649.00;;;25.61;53.10
58761;BME280;44529;47.464;19.014;2022-08-19T01:24:39;99637.31;;;25.54;53.61
58761;BME280;44529;47.464;19.014;2022-08-19T01:27:51;99632.69;;;25.47;53.37
58761;BME280;44529;47.464;19.014;2022-08-19T01:30:55;99641.16;;;25.40;54.26
58761;BME280;44529;47.464;19.014;2022-08-19T01:33:57;99644.84;;;25.33;54.38
58761;BME280;44529;47.464;19.014;2022-08-19T01:37:06;99633.56;;;25.24;55.70
58761;BME280;44529;47.464;19.014;2022-08-19T01:40:10;99630.53;;;25.19;54.68
58761;BME280;44529;47.464;19.014;2022-08-19T01:43:13;99625.47;;;25.14;54.86
58761;BME280;44529;47.464;19.014;2022-08-19T01:46:17;99636.91;;;25.16;54.77
58761;BME280;44529;47.464;19.014;2022-08-19T01:49:26;99626.31;;;25.10;55.62
58761;BME280;44529;47.464;19.014;2022-08-19T01:52:31;99624.41;;;25.07;54.84
58761;BME280;44529;47.464;19.014;2022-08-19T01:55:36;99613.78;;;25.06;55.13
58761;BME280;44529;47.464;19.014;2022-08-19T01:58:46;99602.31;;;25.04;54.92
58761;BME280;44529;47.464;19.014;2022-08-19T02:01:51;99594.44;;;25.02;55.18
58761;BME280;44529;47.464;19.014;2022-08-19T02:04:54;99596.78;;;25.04;54.99
58761;BME280;44529;47.464;19.014;2022-08-19T02:07:56;99595.66;;;25.01;55.08
58761;BME280;44529;47.464;19.014;2022-08-19T02:10:59;99596.41;;;25.05;55.09
58761;BME280;44529;47.464;19.014;2022-08-19T02:14:04;99592.06;;;25.04;54.82
58761;BME280;44529;47.464;19.014;2022-08-19T02:17:08;99588.13;;;25.02;54.91
58761;BME280;44529;47.464;19.014;2022-08-19T02:20:11;99589.78;;;24.99;55.43
58761;BME280;44529;47.464;19.014;2022-08-19T02:23:16;99585.34;;;25.05;54.65
58761;BME280;44529;47.464;19.014;2022-08-19T02:26:19;99590.00;;;25.08;54.83
58761;BME280;44529;47.464;19.014;2022-08-19T02:29:21;99586.03;;;25.09;55.30
58761;BME280;44529;47.464;19.014;2022-08-19T02:32:23;99576.50;;;25.10;54.87
58761;BME280;44529;47.464;19.014;2022-08-19T02:35:26;99576.16;;;25.28;53.81
58761;BME280;44529;47.464;19.014;2022-08-19T02:38:28;99583.03;;;25.40;52.73
58761;BME280;44529;47.464;19.014;2022-08-19T02:41:32;99591.50;;;25.49;53.57
58761;BME280;44529;47.464;19.014;2022-08-19T02:44:34;99588.69;;;25.53;52.71
58761;BME280;44529;47.464;19.014;2022-08-19T02:47:37;99596.03;;;25.59;52.75
58761;BME280;44529;47.464;19.014;2022-08-19T02:50:40;99601.03;;;25.48;53.55
58761;BME280;44529;47.464;19.014;2022-08-19T02:53:54;99593.00;;;25.54;53.11
58761;BME280;44529;47.464;19.014;2022-08-19T02:56:57;99601.91;;;25.45;53.90
58761;BME280;44529;47.464;19.014;2022-08-19T03:00:00;99604.44;;;25.36;54.56
58761;BME280;44529;47.464;19.014;2022-08-19T03:03:03;99617.50;;;25.35;54.22
58761;BME280;44529;47.464;19.014;2022-08-19T03:06:12;99621.50;;;25.34;53.88
58761;BME280;44529;47.464;19.014;2022-08-19T03:09:16;99607.28;;;25.52;52.06
58761;BME280;44529;47.464;19.014;2022-08-19T03:12:18;99614.22;;;25.60;51.99
58761;BME280;44529;47.464;19.014;2022-08-19T03:15:20;99623.75;;;25.59;52.53
58761;BME280;44529;47.464;19.014;2022-08-19T03:18:23;99619.91;;;25.53;52.81
58761;BME280;44529;47.464;19.014;2022-08-19T03:21:28;99627.72;;;25.58;52.38
58761;BME280;44529;47.464;19.014;2022-08-19T03:24:31;99635.94;;;25.62;52.06
58761;BME280;44529;47.464;19.014;2022-08-19T03:27:33;99635.44;;;25.67;51.54
58761;BME280;44529;47.464;19.014;2022-08-19T03:30:36;99630.59;;;25.71;51.31
58761;BME280;44529;47.464;19.014;2022-08-19T03:33:43;99634.59;;;25.70;51.44
58761;BME280;44529;47.464;19.014;2022-08-19T03:36:47;99641.47;;;25.62;52.26
58761;BME280;44529;47.464;19.014;2022-08-19T03:39:49;99635.66;;;25.56;52.75
58761;BME280;44529;47.464;19.014;2022-08-19T03:42:52;99640.13;;;25.50;52.60
58761;BME280;44529;47.464;19.014;2022-08-19T03:46:06;99635.66;;;25.56;51.84
58761;BME280;44529;47.464;19.014;2022-08-19T03:49:09;99642.78;;;25.57;51.77
58761;BME280;44529;47.464;19.014;2022-08-19T03:52:15;99651.22;;;25.50;51.90
58761;BME280;44529;47.464;19.014;2022-08-19T03:55:18;99652.25;;;25.56;51.86
58761;BME280;44529;47.464;19.014;2022-08-19T03:58:21;99661.09;;;25.51;52.05
58761;BME280;44529;47.464;19.014;2022-08-19T04:01:26;99661.25;;;25.44;52.46
58761;BME280;44529;47.464;19.014;2022-08-19T04:04:38;99650.22;;;25.41;52.39
58761;BME280;44529;47.464;19.014;2022-08-19T04:07:41;99648.25;;;25.41;52.05
58761;BME280;44529;47.464;19.014;2022-08-19T04:10:44;99655.81;;;25.37;52.68
58761;BME280;44529;47.464;19.014;2022-08-19T04:13:46;99664.56;;;25.35;52.66
58761;BME280;44529;47.464;19.014;2022-08-19T04:16:50;99667.44;;;25.32;53.04
58761;BME280;44529;47.464;19.014;2022-08-19T04:19:52;99675.06;;;25.24;52.94
58761;BME280;44529;47.464;19.014;2022-08-19T04:22:56;99681.47;;;25.21;53.38
58761;BME280;44529;47.464;19.014;2022-08-19T04:25:59;99673.22;;;25.18;53.97
58761;BME280;44529;47.464;19.014;2022-08-19T04:29:11;99660.44;;;25.24;53.44
58761;BME280;44529;47.464;19.014;2022-08-19T04:32:13;99682.72;;;25.17;53.33
58761;BME280;44529;47.464;19.014;2022-08-19T04:35:17;99687.78;;;25.22;53.66
58761;BME280;44529;47.464;19.014;2022-08-19T04:38:25;99682.19;;;25.25;53.39
58761;BME280;44529;47.464;19.014;2022-08-19T04:41:28;99691.75;;;25.21;53.00
58761;BME280;44529;47.464;19.014;2022-08-19T04:44:48;99691.97;;;25.30;53.14
58761;BME280;44529;47.464;19.014;2022-08-19T04:47:55;99686.13;;;25.24;53.41
58761;BME280;44529;47.464;19.014;2022-08-19T04:51:18;99675.88;;;25.25;54.34
58761;BME280;44529;47.464;19.014;2022-08-19T04:54:24;99680.41;;;25.35;52.74
58761;BME280;44529;47.464;19.014;2022-08-19T04:57:39;99681.59;;;25.34;53.17
58761;BME280;44529;47.464;19.014;2022-08-19T05:00:42;99684.53;;;25.27;53.47
58761;BME280;44529;47.464;19.014;2022-08-19T05:03:45;99696.41;;;25.24;53.69
58761;BME280;44529;47.464;19.014;2022-08-19T05:06:48;99696.41;;;25.24;54.62
58761;BME280;44529;47.464;19.014;2022-08-19T05:09:51;99691.66;;;25.24;54.20
58761;BME280;44529;47.464;19.014;2022-08-19T05:13:00;99689.91;;;25.34;53.44
58761;BME280;44529;47.464;19.014;2022-08-19T05:16:02;99697.00;;;25.35;53.51
58761;BME280;44529;47.464;19.014;2022-08-19T05:19:05;99697.09;;;25.31;54.08
58761;BME280;44529;47.464;19.014;2022-08-19T05:22:25;99689.91;;;25.34;53.88
58761;BME280;44529;47.464;19.014;2022-08-19T05:25:34;99690.13;;;25.43;53.61
58761;BME280;44529;47.464;19.014;2022-08-19T05:28:36;99689.84;;;25.37;53.87
58761;BME280;44529;47.464;19.014;2022-08-19T05:31:39;99686.72;;;25.35;54.67
58761;BME280;44529;47.464;19.014;2022-08-19T05:34:42;99691.81;;;25.37;54.96
58761;BME280;44529;47.464;19.014;2022-08-19T05:37:45;99684.44;;;25.30;54.87
58761;BME280;44529;47.464;19.014;2022-08-19T05:40:48;99699.28;;;25.40;53.71
58761;BME280;44529;47.464;19.014;2022-08-19T05:43:51;99693.41;;;25.38;54.38
58761;BME280;44529;47.464;19.014;2022-08-19T05:46:54;99696.87;;;25.42;53.85
58761;BME280;44529;47.464;19.014;2022-08-19T05:49:56;99696.37;;;25.47;54.73
58761;BME280;44529;47.464;19.014;2022-08-19T05:52:58;99692.03;;;25.46;53.51
58761;BME280;44529;47.464;19.014;2022-08-19T05:56:10;99695.16;;;25.48;54.27
58761;BME280;44529;47.464;19.014;2022-08-19T05:59:15;99689.63;;;25.48;55.23
58761;BME280;44529;47.464;19.014;2022-08-19T06:02:20;99693.16;;;25.49;54.24
58761;BME280;44529;47.464;19.014;2022-08-19T06:05:22;99695.09;;;25.52;54.87
58761;BME280;44529;47.464;19.014;2022-08-19T06:08:26;99695.38;;;25.57;53.99
58761;BME280;44529;47.464;19.014;2022-08-19T06:11:45;99688.37;;;25.69;52.85
58761;BME280;44529;47.464;19.014;2022-08-19T06:14:47;99688.34;;;25.73;53.71
58761;BME280;44529;47.464;19.014;2022-08-19T06:18:02;99688.34;;;25.73;54.22
58761;BME280;44529;47.464;19.014;2022-08-19T06:21:05;99691.84;;;25.77;53.62
58761;BME280;44529;47.464;19.014;2022-08-19T06:24:10;99692.62;;;25.77;54.07
58761;BME280;44529;47.464;19.014;2022-08-19T06:27:13;99694.38;;;25.87;54.14
58761;BME280;44529;47.464;19.014;2022-08-19T06:30:15;99680.94;;;25.86;54.79
58761;BME280;44529;47.464;19.014;2022-08-19T06:33:17;99674.97;;;25.87;55.01
58761;BME280;44529;47.464;19.014;2022-08-19T06:36:29;99667.72;;;25.93;54.21
58761;BME280;44529;47.464;19.014;2022-08-19T06:39:37;99672.31;;;26.00;53.91
58761;BME280;44529;47.464;19.014;2022-08-19T06:42:41;99681.25;;;26.08;53.05
58761;BME280;44529;47.464;19.014;2022-08-19T06:45:55;99674.25;;;26.19;53.27
58761;BME280;44529;47.464;19.014;2022-08-19T06:49:00;99674.44;;;26.29;52.54
58761;BME280;44529;47.464;19.014;2022-08-19T06:52:04;99670.12;;;26.44;51.21
58761;BME280;44529;47.464;19.014;2022-08-19T06:55:07;99668.66;;;26.56;50.64
58761;BME280;44529;47.464;19.014;2022-08-19T06:58:09;99671.94;;;26.67;50.23
58761;BME280;44529;47.464;19.014;2022-08-19T07:01:12;99678.09;;;26.75;51.69
58761;BME280;44529;47.464;19.014;2022-08-19T07:04:18;99689.53;;;26.77;52.41
58761;BME280;44529;47.464;19.014;2022-08-19T07:07:21;99698.34;;;26.88;51.52
58761;BME280;44529;47.464;19.014;2022-08-19T07:10:24;99699.66;;;26.99;49.78
58761;BME280;44529;47.464;19.014;2022-08-19T07:13:27;99707.53;;;27.01;50.26
58761;BME280;44529;47.464;19.014;2022-08-19T07:16:29;99721.16;;;27.12;49.83
58761;BME280;44529;47.464;19.014;2022-08-19T07:19:33;99709.31;;;27.24;49.06
58761;BME280;44529;47.464;19.014;2022-08-19T07:22:39;99711.81;;;27.35;48.78
58761;BME280;44529;47.464;19.014;2022-08-19T07:25:42;99710.72;;;27.45;48.51
58761;BME280;44529;47.464;19.014;2022-08-19T07:28:47;99712.78;;;27.57;47.98
58761;BME280;44529;47.464;19.014;2022-08-19T07:31:55;99712.72;;;27.73;47.49
58761;BME280;44529;47.464;19.014;2022-08-19T07:35:01;99718.75;;;27.85;48.06
58761;BME280;44529;47.464;19.014;2022-08-19T07:38:05;99706.41;;;28.11;46.88
58761;BME280;44529;47.464;19.014;2022-08-19T07:41:11;99707.44;;;28.30;47.84
58761;BME280;44529;47.464;19.014;2022-08-19T07:44:15;99702.84;;;28.62;46.37
58761;BME280;44529;47.464;19.014;2022-08-19T07:47:17;99699.03;;;28.94;46.83
58761;BME280;44529;47.464;19.014;2022-08-19T07:50:40;99688.00;;;29.25;45.40
58761;BME280;44529;47.464;19.014;2022-08-19T07:53:42;99692.78;;;29.68;42.47
58761;BME280;44529;47.464;19.014;2022-08-19T07:56:46;99693.25;;;29.98;42.56
58761;BME280;44529;47.464;19.014;2022-08-19T07:59:50;99694.78;;;30.30;42.13
58761;BME280;44529;47.464;19.014;2022-08-19T08:02:53;99696.28;;;30.62;41.32
58761;BME280;44529;47.464;19.014;2022-08-19T08:05:57;99698.38;;;30.98;40.62
58761;BME280;44529;47.464;19.014;2022-08-19T08:09:22;99698.06;;;31.23;40.13
58761;BME280;44529;47.464;19.014;2022-08-19T08:12:36;99694.94;;;31.49;39.60
58761;BME280;44529;47.464;19.014;2022-08-19T08:15:43;99696.28;;;31.72;37.45
58761;BME280;44529;47.464;19.014;2022-08-19T08:18:46;99703.69;;;32.02;38.55
58761;BME280;44529;47.464;19.014;2022-08-19T08:21:53;99704.88;;;32.11;37.08
58761;BME280;44529;47.464;19.014;2022-08-19T08:24:56;99702.31;;;32.31;36.01
58761;BME280;44529;47.464;19.014;2022-08-19T08:28:00;99698.59;;;32.58;35.22
58761;BME280;44529;47.464;19.014;2022-08-19T08:31:02;99689.84;;;32.89;35.16
58761;BME280;44529;47.464;19.014;2022-08-19T08:34:12;99709.94;;;33.26;33.55
58761;BME280;44529;47.464;19.014;2022-08-19T08:37:15;99703.03;;;33.51;33.46
58761;BME280;44529;47.464;19.014;2022-08-19T08:46:42;99685.19;;;34.13;32.52
58761;BME280;44529;47.464;19.014;2022-08-19T08:53:14;99660.72;;;34.69;30.93
58761;BME280;44529;47.464;19.014;2022-08-19T08:56:31;99662.56;;;34.72;29.80
58761;BME280;44529;47.464;19.014;2022-08-19T08:59:36;99671.88;;;34.84;30.13
58761;BME280;44529;47.464;19.014;2022-08-19T09:02:39;99673.81;;;34.93;30.66
58761;BME280;44529;47.464;19.014;2022-08-19T09:06:01;99672.78;;;35.16;29.27
58761;BME280;44529;47.464;19.014;2022-08-19T09:09:13;99663.97;;;35.55;29.44
58761;BME280;44529;47.464;19.014;2022-08-19T09:12:40;99667.56;;;35.87;28.59
58761;BME280;44529;47.464;19.014;2022-08-19T09:15:55;99669.25;;;36.05;28.40
58761;BME280;44529;47.464;19.014;2022-08-19T09:19:05;99671.16;;;36.25;28.12
58761;BME280;44529;47.464;19.014;2022-08-19T09:22:09;99668.06;;;36.60;28.65
58761;BME280;44529;47.464;19.014;2022-08-19T09:25:15;99660.81;;;36.48;28.60
58761;BME280;44529;47.464;19.014;2022-08-19T09:28:26;99657.50;;;36.49;28.98
58761;BME280;44529;47.464;19.014;2022-08-19T09:31:29;99657.75;;;36.46;28.32
58761;BME280;44529;47.464;19.014;2022-08-19T09:34:32;99648.59;;;36.62;27.37
58761;BME280;44529;47.464;19.014;2022-08-19T09:37:39;99640.94;;;36.68;27.72
58761;BME280;44529;47.464;19.014;2022-08-19T09:40:42;99643.50;;;36.66;27.87
58761;BME280;44529;47.464;19.014;2022-08-19T09:43:46;99646.31;;;36.77;27.57
58761;BME280;44529;47.464;19.014;2022-08-19T09:46:49;99636.88;;;36.80;26.58
58761;BME280;44529;47.464;19.014;2022-08-19T09:49:52;99633.59;;;36.87;27.02
58761;BME280;44529;47.464;19.014;2022-08-19T09:52:55;99629.19;;;36.81;27.60
58761;BME280;44529;47.464;19.014;2022-08-19T09:55:58;99620.28;;;36.94;27.02
58761;BME280;44529;47.464;19.014;2022-08-19T09:59:05;99612.84;;;36.91;26.41
58761;BME280;44529;47.464;19.014;2022-08-19T10:02:07;99611.56;;;36.92;26.91
58761;BME280;44529;47.464;19.014;2022-08-19T10:05:12;99612.81;;;36.85;27.16
58761;BME280;44529;47.464;19.014;2022-08-19T10:08:35;99611.75;;;36.77;27.27
58761;BME280;44529;47.464;19.014;2022-08-19T10:11:40;99613.09;;;36.93;26.92
58761;BME280;44529;47.464;19.014;2022-08-19T10:14:54;99615.69;;;37.02;27.04
58761;BME280;44529;47.464;19.014;2022-08-19T10:17:57;99611.53;;;36.86;26.65
58761;BME280;44529;47.464;19.014;2022-08-19T10:21:07;99602.53;;;36.82;26.26
58761;BME280;44529;47.464;19.014;2022-08-19T10:24:12;99604.03;;;36.66;26.92
58761;BME280;44529;47.464;19.014;2022-08-19T10:27:15;99595.81;;;36.57;27.00
58761;BME280;44529;47.464;19.014;2022-08-19T10:30:17;99600.41;;;36.54;26.77
58761;BME280;44529;47.464;19.014;2022-08-19T10:33:21;99591.97;;;36.60;26.80
58761;BME280;44529;47.464;19.014;2022-08-19T10:36:43;99597.06;;;36.50;27.86
58761;BME280;44529;47.464;19.014;2022-08-19T10:39:57;99601.38;;;36.40;26.99
58761;BME280;44529;47.464;19.014;2022-08-19T10:43:00;99605.50;;;36.45;27.36
58761;BME280;44529;47.464;19.014;2022-08-19T10:46:02;99608.59;;;36.47;27.64
58761;BME280;44529;47.464;19.014;2022-08-19T10:49:05;99597.34;;;36.58;27.55
58761;BME280;44529;47.464;19.014;2022-08-19T10:52:07;99594.25;;;36.56;27.21
58761;BME280;44529;47.464;19.014;2022-08-19T10:55:34;99603.22;;;36.54;27.09
58761;BME280;44529;47.464;19.014;2022-08-19T10:58:54;99603.56;;;36.73;26.91
58761;BME280;44529;47.464;19.014;2022-08-19T11:02:00;99599.72;;;36.82;26.31
58761;BME280;44529;47.464;19.014;2022-08-19T11:05:02;99593.06;;;36.79;26.88
58761;BME280;44529;47.464;19.014;2022-08-19T11:08:14;99591.53;;;36.84;26.18
58761;BME280;44529;47.464;19.014;2022-08-19T11:11:24;99588.19;;;36.74;26.28
58761;BME280;44529;47.464;19.014;2022-08-19T11:14:27;99580.75;;;36.82;26.00
58761;BME280;44529;47.464;19.014;2022-08-19T11:17:33;99585.12;;;36.83;26.03
58761;BME280;44529;47.464;19.014;2022-08-19T11:20:35;99584.06;;;36.75;26.11
58761;BME280;44529;47.464;19.014;2022-08-19T11:23:39;99588.22;;;36.85;26.17
58761;BME280;44529;47.464;19.014;2022-08-19T11:26:43;99594.66;;;36.92;25.68
58761;BME280;44529;47.464;19.014;2022-08-19T11:29:45;99589.78;;;36.86;26.03
58761;BME280;44529;47.464;19.014;2022-08-19T11:32:47;99589.28;;;36.94;26.27
58761;BME280;44529;47.464;19.014;2022-08-19T11:35:50;99585.41;;;36.85;26.23
58761;BME280;44529;47.464;19.014;2022-08-19T11:38:53;99584.66;;;36.96;25.61
58761;BME280;44529;47.464;19.014;2022-08-19T11:41:58;99589.03;;;37.03;25.47
58761;BME280;44529;47.464;19.014;2022-08-19T11:45:01;99584.16;;;36.98;25.74
58761;BME280;44529;47.464;19.014;2022-08-19T11:48:04;99575.72;;;36.98;25.10
58761;BME280;44529;47.464;19.014;2022-08-19T11:51:10;99572.88;;;36.98;25.40
58761;BME280;44529;47.464;19.014;2022-08-19T11:54:14;99579.78;;;36.97;24.68
58761;BME280;44529;47.464;19.014;2022-08-19T11:57:18;99575.16;;;36.88;25.22
58761;BME280;44529;47.464;19.014;2022-08-19T12:00:22;99561.84;;;36.88;25.05
58761;BME280;44529;47.464;19.014;2022-08-19T12:03:24;99564.13;;;36.84;25.26
58761;BME280;44529;47.464;19.014;2022-08-19T12:06:29;99558.97;;;36.77;25.55
58761;BME280;44529;47.464;19.014;2022-08-19T12:09:33;99560.22;;;36.71;24.89
58761;BME280;44529;47.464;19.014;2022-08-19T12:12:36;99566.63;;;36.60;24.82
58761;BME280;44529;47.464;19.014;2022-08-19T12:15:42;99574.03;;;36.57;25.02
58761;BME280;44529;47.464;19.014;2022-08-19T12:18:45;99570.44;;;36.57;25.37
58761;BME280;44529;47.464;19.014;2022-08-19T12:21:48;99567.78;;;36.37;25.16
58761;BME280;44529;47.464;19.014;2022-08-19T12:24:50;99573.16;;;36.29;24.94
58761;BME280;44529;47.464;19.014;2022-08-19T12:27:55;99577.69;;;36.15;24.84
58761;BME280;44529;47.464;19.014;2022-08-19T12:30:58;99569.00;;;36.19;25.83
58761;BME280;44529;47.464;19.014;2022-08-19T12:34:01;99571.78;;;36.07;25.68
58761;BME280;44529;47.464;19.014;2022-08-19T12:37:05;99569.25;;;36.15;25.48
58761;BME280;44529;47.464;19.014;2022-08-19T12:40:08;99557.75;;;36.24;25.76
58761;BME280;44529;47.464;19.014;2022-08-19T12:43:14;99552.44;;;36.38;25.53
58761;BME280;44529;47.464;19.014;2022-08-19T12:46:21;99540.91;;;36.35;25.01
58761;BME280;44529;47.464;19.014;2022-08-19T12:49:28;99533.22;;;36.36;25.80
58761;BME280;44529;47.464;19.014;2022-08-19T12:52:51;99531.19;;;36.37;25.75
58761;BME280;44529;47.464;19.014;2022-08-19T12:55:59;99531.00;;;36.46;26.00
58761;BME280;44529;47.464;19.014;2022-08-19T12:59:03;99523.56;;;36.43;25.27
58761;BME280;44529;47.464;19.014;2022-08-19T13:02:06;99526.16;;;36.52;24.97
58761;BME280;44529;47.464;19.014;2022-08-19T13:05:12;99528.97;;;36.63;25.12
58761;BME280;44529;47.464;19.014;2022-08-19T13:08:14;99528.47;;;36.70;24.92
58761;BME280;44529;47.464;19.014;2022-08-19T13:11:19;99523.13;;;36.72;24.94
58761;BME280;44529;47.464;19.014;2022-08-19T13:14:22;99517.22;;;36.81;24.78
58761;BME280;44529;47.464;19.014;2022-08-19T13:17:25;99525.19;;;36.88;25.45
58761;BME280;44529;47.464;19.014;2022-08-19T13:20:27;99513.13;;;36.82;25.04
58761;BME280;44529;47.464;19.014;2022-08-19T13:23:30;99519.50;;;36.55;24.92
58761;BME280;44529;47.464;19.014;2022-08-19T13:26:32;99519.66;;;36.29;25.82
58761;BME280;44529;47.464;19.014;2022-08-19T13:29:34;99515.03;;;36.31;25.31
58761;BME280;44529;47.464;19.014;2022-08-19T13:32:55;99521.16;;;36.24;25.58
58761;BME280;44529;47.464;19.014;2022-08-19T13:36:12;99509.56;;;36.05;26.26
58761;BME280;44529;47.464;19.014;2022-08-19T13:39:16;99520.44;;;35.87;25.92
58761;BME280;44529;47.464;19.014;2022-08-19T13:42:18;99518.34;;;35.70;26.39
58761;BME280;44529;47.464;19.014;2022-08-19T13:45:23;99508.28;;;35.58;26.40
58761;BME280;44529;47.464;19.014;2022-08-19T13:48:26;99504.91;;;35.54;27.17
58761;BME280;44529;47.464;19.014;2022-08-19T13:51:29;99499.59;;;35.56;27.73
58761;BME280;44529;47.464;19.014;2022-08-19T13:54:31;99510.88;;;35.67;28.01
58761;BME280;44529;47.464;19.014;2022-08-19T13:57:33;99522.19;;;35.41;29.42
58761;BME280;44529;47.464;19.014;2022-08-19T14:00:40;99553.84;;;34.79;30.89
58761;BME280;44529;47.464;19.014;2022-08-19T14:03:43;99556.12;;;34.54;31.82
58761;BME280;44529;47.464;19.014;2022-08-19T14:06:48;99562.03;;;34.15;32.69
58761;BME280;44529;47.464;19.014;2022-08-19T14:09:50;99545.03;;;33.69;33.34
58761;BME280;44529;47.464;19.014;2022-08-19T14:12:55;99551.91;;;33.53;33.88
58761;BME280;44529;47.464;19.014;2022-08-19T14:15:57;99547.31;;;33.21;34.04
58761;BME280;44529;47.464;19.014;2022-08-19T14:19:00;99549.81;;;33.04;34.67
58761;BME280;44529;47.464;19.014;2022-08-19T14:22:03;99540.62;;;32.88;34.38
58761;BME280;44529;47.464;19.014;2022-08-19T14:25:15;99536.66;;;32.80;34.54
58761;BME280;44529;47.464;19.014;2022-08-19T14:28:18;99513.66;;;32.76;34.79
58761;BME280;44529;47.464;19.014;2022-08-19T14:31:21;99521.00;;;32.74;34.89
58761;BME280;44529;47.464;19.014;2022-08-19T14:34:31;99509.84;;;32.50;35.29
58761;BME280;44529;47.464;19.014;2022-08-19T14:37:36;99518.53;;;32.37;35.62
58761;BME280;44529;47.464;19.014;2022-08-19T14:40:47;99532.84;;;32.30;35.12
58761;BME280;44529;47.464;19.014;2022-08-19T14:43:52;99530.38;;;32.08;34.83
58761;BME280;44529;47.464;19.014;2022-08-19T14:46:55;99530.38;;;31.75;34.41
58761;BME280;44529;47.464;19.014;2022-08-19T14:49:58;99526.03;;;31.74;33.62
58761;BME280;44529;47.464;19.014;2022-08-19T14:53:04;99517.69;;;31.65;32.84
58761;BME280;44529;47.464;19.014;2022-08-19T14:56:16;99552.22;;;31.52;31.80
58761;BME280;44529;47.464;19.014;2022-08-19T14:59:18;99525.25;;;31.49;31.61
58761;BME280;44529;47.464;19.014;2022-08-19T15:02:20;99551.75;;;31.54;31.44
58761;BME280;44529;47.464;19.014;2022-08-19T15:05:36;99555.72;;;31.38;31.51
58761;BME280;44529;47.464;19.014;2022-08-19T15:08:40;99556.63;;;31.35;31.34
58761;BME280;44529;47.464;19.014;2022-08-19T15:11:43;99564.09;;;31.29;31.23
58761;BME280;44529;47.464;19.014;2022-08-19T15:14:45;99577.16;;;31.32;30.73
58761;BME280;44529;47.464;19.014;2022-08-19T15:17:54;99584.13;;;31.37;30.96
58761;BME280;44529;47.464;19.014;2022-08-19T15:20:58;99588.00;;;31.21;31.16
58761;BME280;44529;47.464;19.014;2022-08-19T15:24:01;99594.84;;;31.20;31.01
58761;BME280;44529;47.464;19.014;2022-08-19T15:27:04;99597.63;;;31.20;31.04
58761;BME280;44529;47.464;19.014;2022-08-19T15:30:09;99607.75;;;31.08;31.15
58761;BME280;44529;47.464;19.014;2022-08-19T15:33:12;99619.84;;;31.05;31.09
58761;BME280;44529;47.464;19.014;2022-08-19T15:36:19;99614.13;;;30.99;31.18
58761;BME280;44529;47.464;19.014;2022-08-19T15:39:21;99604.81;;;30.93;31.50
58761;BME280;44529;47.464;19.014;2022-08-19T15:42:24;99608.22;;;30.88;31.79
58761;BME280;44529;47.464;19.014;2022-08-19T15:45:31;99588.69;;;30.88;31.37
58761;BME280;44529;47.464;19.014;2022-08-19T15:48:34;99541.53;;;30.81;31.41
58761;BME280;44529;47.464;19.014;2022-08-19T15:51:37;99544.63;;;30.83;31.50
58761;BME280;44529;47.464;19.014;2022-08-19T15:54:40;99560.13;;;30.84;31.48
58761;BME280;44529;47.464;19.014;2022-08-19T15:57:42;99551.75;;;30.84;31.33
58761;BME280;44529;47.464;19.014;2022-08-19T16:01:06;99552.41;;;30.79;31.58
58761;BME280;44529;47.464;19.014;2022-08-19T16:04:28;99550.84;;;30.69;31.97
58761;BME280;44529;47.464;19.014;2022-08-19T16:07:49;99540.91;;;30.59;31.95
58761;BME280;44529;47.464;19.014;2022-08-19T16:10:52;99540.91;;;30.59;32.02
58761;BME280;44529;47.464;19.014;2022-08-19T16:13:55;99530.84;;;30.61;31.97
58761;BME280;44529;47.464;19.014;2022-08-19T16:17:00;99530.84;;;30.61;31.98
58761;BME280;44529;47.464;19.014;2022-08-19T16:20:04;99529.44;;;30.57;32.20